createdAt,value
2022-12-18T00:03:38.775Z,99575.38
2022-12-18T00:08:43.321Z,99577.69
2022-12-18T00:13:48.001Z,99578.56
2022-12-18T00:18:54.942Z,99574.31
2022-12-18T00:23:58.808Z,99585.53
2022-12-18T00:29:05.699Z,99589.72
2022-12-18T00:34:12.199Z,99606.91
2022-12-18T00:39:17.168Z,99641.47
2022-12-18T00:44:21.934Z,99626.69
2022-12-18T00:49:26.893Z,99619.72
2022-12-18T00:54:30.442Z,99613.53
2022-12-18T00:59:33.902Z,99605.00
2022-12-18T01:04:39.124Z,99606.66
2022-12-18T01:09:42.794Z,99615.31
2022-12-18T01:14:46.592Z,99618.00
2022-12-18T01:19:53.207Z,99624.03
2022-12-18T01:24:56.650Z,99629.06
2022-12-18T01:30:00.211Z,99640.47
2022-12-18T01:35:06.528Z,99667.34
2022-12-18T01:40:11.029Z,99659.59
2022-12-18T01:45:28.771Z,99651.63
2022-12-18T01:50:38.056Z,99647.34
2022-12-18T01:55:45.594Z,99647.72
2022-12-18T02:00:50.402Z,99646.75
2022-12-18T02:06:07.220Z,99643.84
2022-12-18T02:11:17.786Z,99666.56
2022-12-18T02:16:27.090Z,99664.75
2022-12-18T02:21:39.805Z,99662.84
2022-12-18T02:26:48.754Z,99668.03
2022-12-18T02:31:56.715Z,99672.97
2022-12-18T02:37:04.283Z,99683.69
2022-12-18T02:42:10.068Z,99695.72
2022-12-18T02:47:15.778Z,99688.66
2022-12-18T02:52:27.418Z,99716.06
2022-12-18T02:57:39.543Z,99716.72
2022-12-18T03:02:50.671Z,99733.63
2022-12-18T03:08:00.001Z,99739.41
2022-12-18T03:13:12.005Z,99757.44
2022-12-18T03:18:19.801Z,99768.53
2022-12-18T03:23:26.427Z,99797.88
2022-12-18T03:28:34.346Z,99821.94
2022-12-18T03:33:44.649Z,99835.28
2022-12-18T03:38:48.376Z,99837.22
2022-12-18T03:44:02.739Z,99830.22
2022-12-18T03:49:13.699Z,99843.75
2022-12-18T03:54:19.688Z,99858.09
2022-12-18T03:59:34.358Z,99868.84
2022-12-18T04:04:39.800Z,99856.84
2022-12-18T04:09:45.877Z,99868.34
2022-12-18T04:14:52.137Z,99873.69
2022-12-18T04:19:55.838Z,99889.00
2022-12-18T04:25:01.353Z,99890.38
2022-12-18T04:30:14.522Z,99881.72
2022-12-18T04:35:18.642Z,99893.69
2022-12-18T04:40:22.621Z,99896.38
2022-12-18T04:45:28.621Z,99911.97
2022-12-18T04:50:32.795Z,99923.06
2022-12-18T04:55:36.295Z,99943.31
2022-12-18T05:00:41.181Z,99955.44
2022-12-18T05:05:44.936Z,99955.13
2022-12-18T05:10:48.739Z,99976.88
2022-12-18T05:15:55.399Z,99979.09
2022-12-18T05:20:59.278Z,99980.78
2022-12-18T05:26:05.895Z,99979.97
2022-12-18T05:31:11.119Z,99997.63
2022-12-18T05:36:14.794Z,100005.91
2022-12-18T05:41:18.298Z,100005.19
2022-12-18T05:46:23.371Z,100013.78
2022-12-18T05:51:27.038Z,100025.94
2022-12-18T05:56:30.402Z,100039.84
2022-12-18T06:01:35.462Z,100035.72
2022-12-18T06:06:39.265Z,100041.50
2022-12-18T06:11:42.920Z,100055.25
2022-12-18T06:16:47.722Z,100065.56
2022-12-18T06:21:51.856Z,100083.06
2022-12-18T06:26:55.325Z,100088.50
2022-12-18T06:32:00.903Z,100109.72
2022-12-18T06:37:05.432Z,100112.22
2022-12-18T06:42:09.046Z,100124.09
2022-12-18T06:47:14.258Z,100132.50
2022-12-18T06:52:17.788Z,100144.13
2022-12-18T06:57:21.306Z,100136.97
2022-12-18T07:02:26.244Z,100156.63
2022-12-18T07:07:29.803Z,100153.06
2022-12-18T07:12:33.218Z,100156.78
2022-12-18T07:17:38.172Z,100170.13
2022-12-18T07:22:41.650Z,100168.81
2022-12-18T07:27:45.129Z,100172.13
2022-12-18T07:32:50.296Z,100186.09
2022-12-18T07:37:53.942Z,100203.81
2022-12-18T07:42:57.364Z,100210.97
2022-12-18T07:48:02.390Z,100232.47
2022-12-18T07:53:06.191Z,100234.81
2022-12-18T07:58:10.301Z,100233.63
2022-12-18T08:03:16.469Z,100252.88
2022-12-18T08:08:19.959Z,100260.00
2022-12-18T08:13:24.301Z,100268.06
2022-12-18T08:18:29.671Z,100266.69
2022-12-18T08:23:35.094Z,100272.91
2022-12-18T08:28:42.720Z,100283.75
2022-12-18T08:33:48.108Z,100288.13
2022-12-18T08:38:51.788Z,100278.09
2022-12-18T08:44:12.510Z,100288.06
2022-12-18T08:49:17.370Z,100297.94
2022-12-18T08:54:21.825Z,100301.13
2022-12-18T08:59:25.592Z,100292.97
2022-12-18T09:04:30.479Z,100291.97
2022-12-18T09:09:34.119Z,100304.47
2022-12-18T09:14:38.514Z,100310.31
2022-12-18T09:19:43.399Z,100309.13
2022-12-18T09:24:46.825Z,100311.16
2022-12-18T09:29:50.392Z,100310.66
2022-12-18T09:34:55.185Z,100290.72
2022-12-18T09:39:58.615Z,100270.78
2022-12-18T09:45:03.208Z,100266.66
2022-12-18T09:50:22.806Z,100259.94
2022-12-18T09:55:36.617Z,100259.41
2022-12-18T10:00:41.094Z,100273.94
2022-12-18T10:05:52.264Z,100282.06
2022-12-18T10:10:59.929Z,100280.44
2022-12-18T10:16:13.403Z,100283.69
2022-12-18T10:21:23.909Z,100300.09
2022-12-18T10:26:27.471Z,100299.69
2022-12-18T10:31:30.914Z,100315.53
2022-12-18T10:36:36.140Z,100318.94
2022-12-18T10:41:39.711Z,100327.88
2022-12-18T10:46:43.664Z,100332.59
2022-12-18T10:51:48.745Z,100334.03
2022-12-18T10:56:52.378Z,100334.03
2022-12-18T11:01:57.839Z,100330.38
2022-12-18T11:07:04.934Z,100329.13
2022-12-18T11:12:18.226Z,100332.66
2022-12-18T11:17:25.924Z,100327.81
2022-12-18T11:22:33.976Z,100346.38
2022-12-18T11:27:37.513Z,100344.00
2022-12-18T11:32:43.154Z,100349.78
2022-12-18T11:37:53.193Z,100347.34
2022-12-18T11:43:03.494Z,100346.22
2022-12-18T11:48:19.096Z,100347.56
2022-12-18T11:53:25.254Z,100351.97
2022-12-18T11:58:39.945Z,100363.72
2022-12-18T12:04:21.620Z,100361.38
2022-12-18T12:09:33.605Z,100364.88
2022-12-18T12:14:51.986Z,100370.22
2022-12-18T12:20:04.561Z,100375.81
2022-12-18T12:25:34.248Z,100393.94
2022-12-18T12:30:50.882Z,100379.13
2022-12-18T12:36:02.338Z,100399.47
2022-12-18T12:41:31.519Z,100404.78
2022-12-18T12:46:39.490Z,100407.19
2022-12-18T12:51:47.097Z,100410.75
2022-12-18T12:56:57.091Z,100415.13
2022-12-18T13:02:07.904Z,100415.88
2022-12-18T13:07:18.735Z,100423.09
2022-12-18T13:12:41.339Z,100422.75
2022-12-18T13:17:46.182Z,100434.97
2022-12-18T13:22:51.958Z,100434.63
2022-12-18T13:28:04.756Z,100441.16
2022-12-18T13:33:56.259Z,100447.66
2022-12-18T13:39:30.024Z,100454.50
2022-12-18T13:44:41.544Z,100454.78
2022-12-18T13:49:46.839Z,100462.97
2022-12-18T13:54:55.166Z,100467.00
2022-12-18T14:00:21.836Z,100475.22
2022-12-18T14:05:27.561Z,100488.38
2022-12-18T14:10:47.619Z,100486.78
2022-12-18T14:15:54.732Z,100498.69
2022-12-18T14:21:02.668Z,100509.25
2022-12-18T14:26:24.032Z,100516.75
2022-12-18T14:31:33.335Z,100526.91
2022-12-18T14:36:37.109Z,100526.91
2022-12-18T14:41:40.633Z,100538.13
2022-12-18T14:46:46.924Z,100557.09
2022-12-18T14:51:51.988Z,100568.94
2022-12-18T14:57:02.300Z,100555.44
2022-12-18T15:02:15.980Z,100561.06
2022-12-18T15:07:22.136Z,100575.47
2022-12-18T15:12:32.630Z,100585.94
2022-12-18T15:17:43.614Z,100586.41
2022-12-18T15:22:50.071Z,100602.03
2022-12-18T15:27:54.050Z,100619.38
2022-12-18T15:33:25.969Z,100608.41
2022-12-18T15:38:29.743Z,100613.91
2022-12-18T15:43:36.391Z,100612.94
2022-12-18T15:48:43.534Z,100610.38
2022-12-18T15:53:47.679Z,100616.38
2022-12-18T15:58:51.157Z,100620.81
2022-12-18T16:03:56.590Z,100631.41
2022-12-18T16:09:00.670Z,100644.19
2022-12-18T16:14:04.405Z,100638.47
2022-12-18T16:19:09.801Z,100642.19
2022-12-18T16:24:17.255Z,100650.63
2022-12-18T16:29:25.799Z,100672.88
2022-12-18T16:34:35.413Z,100679.59
2022-12-18T16:39:40.665Z,100672.19
2022-12-18T16:44:45.331Z,100684.16
2022-12-18T16:49:53.008Z,100680.78
2022-12-18T16:54:56.911Z,100686.31
2022-12-18T17:00:05.064Z,100698.88
2022-12-18T17:05:10.997Z,100692.38
2022-12-18T17:10:15.831Z,100704.25
2022-12-18T17:15:19.445Z,100710.09
2022-12-18T17:20:25.096Z,100715.22
2022-12-18T17:25:28.911Z,100715.81
2022-12-18T17:30:32.355Z,100731.03
2022-12-18T17:35:37.653Z,100735.16
2022-12-18T17:40:46.040Z,100737.59
2022-12-18T17:46:09.389Z,100740.06
2022-12-18T17:51:13.717Z,100746.34
2022-12-18T17:56:20.081Z,100749.31
2022-12-18T18:01:26.845Z,100753.91
2022-12-18T18:06:30.391Z,100758.97
2022-12-18T18:11:53.291Z,100769.13
2022-12-18T18:17:04.724Z,100786.66
2022-12-18T18:22:08.615Z,100791.59
2022-12-18T18:27:12.384Z,100791.75
2022-12-18T18:32:17.381Z,100790.72
2022-12-18T18:37:21.024Z,100789.25
2022-12-18T18:42:24.501Z,100775.84
2022-12-18T18:47:30.697Z,100784.00
2022-12-18T18:52:34.247Z,100783.75
2022-12-18T18:57:38.436Z,100780.84
2022-12-18T19:02:43.420Z,100800.19
2022-12-18T19:07:47.385Z,100811.91
2022-12-18T19:13:07.925Z,100818.91
2022-12-18T19:18:13.203Z,100829.47
2022-12-18T19:23:16.705Z,100827.25
2022-12-18T19:28:26.015Z,100826.00
2022-12-18T19:33:48.191Z,100823.78
2022-12-18T19:38:52.492Z,100828.06
2022-12-18T19:43:56.147Z,100825.91
2022-12-18T19:49:01.938Z,100830.16
2022-12-18T19:54:07.071Z,100841.72
2022-12-18T19:59:11.184Z,100828.06
2022-12-18T20:04:16.072Z,100843.84
2022-12-18T20:09:20.502Z,100843.03
2022-12-18T20:14:25.063Z,100832.94
2022-12-18T20:19:30.017Z,100844.44
2022-12-18T20:24:33.532Z,100843.91
2022-12-18T20:29:36.887Z,100851.97
2022-12-18T20:34:42.285Z,100853.03
2022-12-18T20:39:46.658Z,100860.97
2022-12-18T20:44:50.870Z,100871.25
2022-12-18T20:49:56.469Z,100873.09
2022-12-18T20:54:59.841Z,100874.50
2022-12-18T21:00:08.485Z,100888.97
2022-12-18T21:05:13.867Z,100886.72
2022-12-18T21:10:17.315Z,100883.16
2022-12-18T21:15:26.811Z,100903.25
2022-12-18T21:20:33.465Z,100896.41
2022-12-18T21:25:37.090Z,100912.31
2022-12-18T21:30:41.015Z,100917.84
2022-12-18T21:35:46.061Z,100925.03
2022-12-18T21:40:49.433Z,100927.88
2022-12-18T21:45:52.929Z,100925.88
2022-12-18T21:50:57.755Z,100933.28
2022-12-18T21:56:01.800Z,100932.66
2022-12-18T22:01:05.300Z,100934.97
2022-12-18T22:06:10.488Z,100937.22
2022-12-18T22:11:14.644Z,100927.09
2022-12-18T22:16:19.636Z,100948.13
2022-12-18T22:21:29.278Z,100939.34
2022-12-18T22:26:39.466Z,100934.59
2022-12-18T22:31:43.689Z,100930.66
2022-12-18T22:36:49.714Z,100934.31
2022-12-18T22:41:53.718Z,100929.00
2022-12-18T22:47:06.954Z,100930.75
2022-12-18T22:52:12.458Z,100921.25
2022-12-18T22:57:16.965Z,100920.19
2022-12-18T23:02:21.029Z,100922.75
2022-12-18T23:07:25.989Z,100916.31
2022-12-18T23:12:29.477Z,100928.25
2022-12-18T23:17:32.974Z,100921.69
2022-12-18T23:22:38.021Z,100921.38
2022-12-18T23:27:41.398Z,100926.59
2022-12-18T23:32:44.757Z,100931.06
2022-12-18T23:37:58.676Z,100948.91
2022-12-18T23:43:03.078Z,100947.66
2022-12-18T23:48:06.460Z,100954.69
2022-12-18T23:53:11.944Z,100965.66
2022-12-18T23:58:18.530Z,100973.53
